Time;durP1;ratioP1;P1;durP2;ratioP2;P2;SDS_P1;SDS_P2;PMS_P1;PMS_P2;Temp;Humidity;BMP_temperature;BMP_pressure;BME280_temperature;BME280_humidity;BME280_pressure;Samples;Min_cycle;Max_cycle;Signal;HPM_P1;HPM_P2
2021/03/18 00:00:39;;;;;;;7.57;4.17;;;;;;;;;;10199893;28;20038;-61
2021/03/18 00:05:37;;;;;;;12.95;5.68;;;;;;;;;;10201018;28;20034;-58
2021/03/18 00:10:34;;;;;;;8.90;3.47;;;;;;;;;;10226433;28;20037;-59
2021/03/18 00:15:34;;;;;;;14.37;5.80;;;;;;;;;;10209843;28;20485;-64
2021/03/18 00:20:31;;;;;;;15.10;5.47;;;;;;;;;;10213711;28;20463;-59
2021/03/18 00:25:29;;;;;;;8.80;3.87;;;;;;;;;;10216714;28;20046;-61
2021/03/18 00:30:26;;;;;;;6.10;3.73;;;;;;;;;;10211780;28;20255;-60
2021/03/18 00:35:24;;;;;;;9.25;4.00;;;;;;;;;;10224346;28;20133;-58
2021/03/18 00:40:24;;;;;;;15.27;6.13;;;;;;;;;;10227143;28;20408;-59
2021/03/18 00:45:22;;;;;;;3.55;1.67;;;;;;;;;;10215358;28;20048;-60
2021/03/18 00:50:19;;;;;;;;;;;;;;;;;;10224696;28;20038;-63
2021/03/18 00:55:17;;;;;;;4.73;3.10;;;;;;;;;;10203634;28;19918;-60
2021/03/18 01:00:21;;;;;;;18.42;5.50;;;;;;;;;;10201161;28;20567;-60
2021/03/18 01:05:25;;;;;;;8.80;4.00;;;;;;;;;;10221496;28;20057;-60
2021/03/18 01:10:25;;;;;;;20.77;7.22;;;;;;;;;;10209214;28;20093;-59
2021/03/18 01:15:25;;;;;;;5.45;2.55;;;;;;;;;;10217351;28;20043;-59
2021/03/18 01:20:22;;;;;;;9.65;3.65;;;;;;;;;;10214890;28;20478;-60
2021/03/18 01:25:20;;;;;;;5.32;3.28;;;;;;;;;;10221960;28;20042;-61
2021/03/18 01:30:19;;;;;;;17.00;5.73;;;;;;;;;;10217498;28;20693;-62
2021/03/18 01:35:20;;;;;;;6.47;3.03;;;;;;;;;;10222270;28;20237;-59
2021/03/18 01:40:21;;;;;;;8.73;3.13;;;;;;;;;;10208436;28;20138;-63
2021/03/18 01:45:19;;;;;;;22.05;9.23;;;;;;;;;;10218357;28;20108;-61
2021/03/18 01:50:17;;;;;;;5.23;3.27;;;;;;;;;;10200221;28;20050;-62
2021/03/18 01:55:18;;;;;;;14.13;5.22;;;;;;;;;;10199790;28;20039;-62
2021/03/18 02:00:16;;;;;;;9.77;5.13;;;;;;;;;;10201091;28;20035;-62
2021/03/18 02:05:13;;;;;;;9.98;4.00;;;;;;;;;;10214785;28;20517;-61
2021/03/18 02:10:11;;;;;;;9.03;4.20;;;;;;;;;;10224718;28;20042;-60
2021/03/18 02:15:08;;;;;;;11.00;5.80;;;;;;;;;;10199195;28;20049;-60
2021/03/18 02:20:15;;;;;;;8.90;4.80;;;;;;;;;;10212206;28;20125;-62
2021/03/18 02:25:15;;;;;;;12.25;5.45;;;;;;;;;;10221353;28;20034;-64
2021/03/18 02:30:16;;;;;;;6.53;2.13;;;;;;;;;;10214643;28;20048;-63
2021/03/18 02:35:16;;;;;;;11.68;5.30;;;;;;;;;;10215201;28;20058;-62
2021/03/18 02:40:15;;;;;;;8.77;3.47;;;;;;;;;;10198923;28;20437;-62
2021/03/18 02:45:13;;;;;;;7.28;3.40;;;;;;;;;;10220584;28;20564;-63
2021/03/18 02:50:11;;;;;;;4.43;1.67;;;;;;;;;;10211816;28;20464;-63
2021/03/18 02:55:08;;;;;;;1.75;1.13;;;;;;;;;;10201598;28;20031;-63
2021/03/18 03:00:09;;;;;;;3.83;1.23;;;;;;;;;;10217880;28;20036;-63
2021/03/18 03:05:08;;;;;;;1.13;0.68;;;;;;;;;;10207921;28;20061;-61
2021/03/18 03:10:06;;;;;;;2.13;1.35;;;;;;;;;;10198061;28;20031;-60
2021/03/18 03:15:05;;;;;;;1.35;0.52;;;;;;;;;;10218558;28;20025;-60
2021/03/18 03:20:05;;;;;;;1.27;0.98;;;;;;;;;;10221436;28;20038;-60
2021/03/18 03:25:04;;;;;;;4.38;1.15;;;;;;;;;;10210057;28;20062;-61
2021/03/18 03:30:04;;;;;;;3.15;0.95;;;;;;;;;;10205918;28;20042;-60
2021/03/18 03:35:03;;;;;;;0.68;0.68;;;;;;;;;;10212597;28;20066;-60
2021/03/18 03:40:00;;;;;;;0.40;0.40;;;;;;;;;;10203081;28;20408;-61
2021/03/18 03:44:58;;;;;;;3.40;0.93;;;;;;;;;;10216612;28;20129;-59
2021/03/18 03:49:55;;;;;;;1.90;0.77;;;;;;;;;;10207809;28;20045;-60
2021/03/18 03:55:02;;;;;;;0.63;0.30;;;;;;;;;;10211533;28;20515;-60
2021/03/18 04:00:01;;;;;;;1.08;0.65;;;;;;;;;;10216552;28;20576;-61
2021/03/18 04:04:58;;;;;;;0.95;0.95;;;;;;;;;;10208709;28;20523;-60
2021/03/18 04:09:57;;;;;;;2.20;1.10;;;;;;;;;;10215465;28;20125;-61
2021/03/18 04:14:56;;;;;;;2.35;0.75;;;;;;;;;;10213991;28;20089;-61
2021/03/18 04:19:55;;;;;;;1.42;1.00;;;;;;;;;;10213481;28;20050;-62
2021/03/18 04:24:53;;;;;;;1.67;0.88;;;;;;;;;;10212701;28;20041;-61
2021/03/18 04:29:50;;;;;;;4.18;0.80;;;;;;;;;;10218717;28;20027;-61
2021/03/18 04:34:49;;;;;;;0.83;0.57;;;;;;;;;;10213627;28;20443;-59
2021/03/18 04:39:47;;;;;;;1.65;0.93;;;;;;;;;;10222011;28;20106;-59
2021/03/18 04:44:45;;;;;;;2.53;0.32;;;;;;;;;;10204411;28;20113;-61
2021/03/18 04:49:44;;;;;;;0.98;0.60;;;;;;;;;;10211140;28;20027;-60
2021/03/18 04:54:41;;;;;;;0.45;0.45;;;;;;;;;;10229598;28;20599;-59
2021/03/18 04:59:39;;;;;;;2.73;0.80;;;;;;;;;;10214409;28;20424;-62
2021/03/18 05:04:37;;;;;;;0.82;0.52;;;;;;;;;;10220301;28;20109;-61
2021/03/18 05:09:34;;;;;;;2.60;1.20;;;;;;;;;;10213833;28;20030;-60
2021/03/18 05:14:32;;;;;;;0.77;0.77;;;;;;;;;;10213457;28;20490;-64
2021/03/18 05:19:30;;;;;;;0.27;0.27;;;;;;;;;;10188179;28;20038;-61
2021/03/18 05:24:28;;;;;;;2.53;0.77;;;;;;;;;;10186306;28;20035;-60
2021/03/18 05:29:25;;;;;;;1.55;1.05;;;;;;;;;;10191893;28;20042;-59
2021/03/18 05:34:22;;;;;;;4.33;1.33;;;;;;;;;;10199259;28;20039;-58
2021/03/18 05:39:20;;;;;;;6.07;2.10;;;;;;;;;;10196640;28;20046;-60
2021/03/18 05:44:18;;;;;;;3.93;1.73;;;;;;;;;;10204106;28;20046;-59
2021/03/18 05:49:16;;;;;;;2.97;0.75;;;;;;;;;;10203627;28;20031;-62
2021/03/18 05:54:14;;;;;;;2.40;1.08;;;;;;;;;;10190804;28;20135;-60
2021/03/18 05:59:11;;;;;;;3.50;0.80;;;;;;;;;;10195291;28;20540;-60
2021/03/18 06:04:09;;;;;;;2.50;0.40;;;;;;;;;;10222101;28;20052;-59
2021/03/18 06:09:07;;;;;;;0.40;0.40;;;;;;;;;;10205828;28;20034;-63
2021/03/18 06:14:04;;;;;;;2.13;0.80;;;;;;;;;;10180027;28;20084;-60
2021/03/18 06:19:04;;;;;;;2.43;0.70;;;;;;;;;;10202054;28;20048;-60
2021/03/18 06:24:02;;;;;;;0.73;0.68;;;;;;;;;;10198704;28;20034;-64
2021/03/18 06:28:59;;;;;;;0.37;0.37;;;;;;;;;;10203661;28;20031;-59
2021/03/18 06:33:56;;;;;;;1.60;0.47;;;;;;;;;;10184362;28;20069;-62
2021/03/18 06:39:06;;;;;;;0.60;0.60;;;;;;;;;;10200014;28;20039;-62
2021/03/18 06:44:20;;;;;;;0.50;0.50;;;;;;;;;;10203835;28;20043;-62
2021/03/18 06:49:18;;;;;;;0.77;0.43;;;;;;;;;;10176940;28;20066;-61
2021/03/18 06:54:19;;;;;;;1.88;0.73;;;;;;;;;;10169588;28;20127;-62
2021/03/18 06:59:24;;;;;;;0.98;0.80;;;;;;;;;;10180587;28;20065;-66
2021/03/18 07:04:31;;;;;;;0.70;0.70;;;;;;;;;;10191598;28;20037;-64
2021/03/18 07:09:31;;;;;;;1.40;0.93;;;;;;;;;;10190922;28;20535;-63
2021/03/18 07:14:40;;;;;;;1.85;0.98;;;;;;;;;;10192526;28;20041;-62
2021/03/18 07:19:38;;;;;;;0.82;0.82;;;;;;;;;;10208216;28;20594;-63
2021/03/18 07:24:36;;;;;;;4.15;0.93;;;;;;;;;;10218438;28;20077;-63
2021/03/18 07:29:34;;;;;;;0.77;0.57;;;;;;;;;;10215736;28;20050;-62
2021/03/18 07:34:32;;;;;;;7.45;1.20;;;;;;;;;;10220628;28;20054;-60
2021/03/18 07:39:30;;;;;;;1.13;0.85;;;;;;;;;;10225786;28;20042;-58
2021/03/18 07:44:28;;;;;;;1.10;0.50;;;;;;;;;;10214443;28;20042;-60
2021/03/18 07:49:30;;;;;;;1.40;0.50;;;;;;;;;;10204547;28;20046;-59
2021/03/18 07:54:28;;;;;;;0.85;0.50;;;;;;;;;;10202185;28;20045;-62
2021/03/18 07:59:29;;;;;;;4.53;0.73;;;;;;;;;;10209317;28;20030;-60
2021/03/18 08:04:38;;;;;;;2.08;1.27;;;;;;;;;;10216013;28;20123;-60
2021/03/18 08:09:35;;;;;;;0.75;0.50;;;;;;;;;;10209210;28;20045;-61
2021/03/18 08:14:32;;;;;;;0.37;0.33;;;;;;;;;;10217315;28;20039;-60
2021/03/18 08:19:39;;;;;;;0.23;0.23;;;;;;;;;;10225780;28;20437;-60
2021/03/18 08:24:36;;;;;;;0.50;0.50;;;;;;;;;;10212718;28;20049;-61
2021/03/18 08:29:37;;;;;;;0.33;0.33;;;;;;;;;;10203177;28;20038;-60
2021/03/18 08:34:49;;;;;;;0.30;0.30;;;;;;;;;;10212160;28;20129;-60
2021/03/18 08:39:48;;;;;;;0.40;0.40;;;;;;;;;;10218502;28;20089;-63
2021/03/18 08:44:45;;;;;;;1.33;0.73;;;;;;;;;;10213970;28;20121;-62
2021/03/18 08:49:43;;;;;;;0.10;0.10;;;;;;;;;;10230454;28;20113;-63
2021/03/18 08:54:43;;;;;;;3.03;0.82;;;;;;;;;;10220266;28;20046;-61
2021/03/18 08:59:51;;;;;;;1.38;1.13;;;;;;;;;;10224724;28;20125;-61
2021/03/18 09:04:50;;;;;;;1.42;1.10;;;;;;;;;;10206612;28;20373;-63
2021/03/18 09:09:58;;;;;;;2.80;1.05;;;;;;;;;;10232729;28;20508;-63
2021/03/18 09:14:56;;;;;;;4.30;0.70;;;;;;;;;;10203937;28;20056;-57
2021/03/18 09:19:55;;;;;;;2.03;0.93;;;;;;;;;;10209689;28;20041;-62
2021/03/18 09:24:54;;;;;;;1.60;0.57;;;;;;;;;;10197068;28;20086;-63
2021/03/18 09:29:52;;;;;;;0.30;0.30;;;;;;;;;;10218924;28;21318;-61
2021/03/18 09:34:49;;;;;;;0.30;0.30;;;;;;;;;;10207330;28;20129;-62
2021/03/18 09:39:48;;;;;;;1.30;0.43;;;;;;;;;;10212298;28;20064;-64
2021/03/18 09:44:47;;;;;;;0.43;0.30;;;;;;;;;;10231004;28;20034;-62
2021/03/18 09:49:44;;;;;;;0.30;0.30;;;;;;;;;;10222775;28;20061;-62
2021/03/18 09:54:42;;;;;;;0.10;0.10;;;;;;;;;;10201747;28;20052;-62
2021/03/18 09:59:39;;;;;;;0.40;0.40;;;;;;;;;;10214095;28;20057;-61
2021/03/18 10:04:38;;;;;;;2.07;0.50;;;;;;;;;;10215726;28;20060;-62
2021/03/18 10:09:36;;;;;;;0.20;0.20;;;;;;;;;;10206553;28;20033;-63
2021/03/18 10:14:41;;;;;;;3.80;0.47;;;;;;;;;;10225287;28;20241;-62
2021/03/18 10:19:40;;;;;;;3.20;0.30;;;;;;;;;;10204380;28;20053;-62
2021/03/18 10:24:38;;;;;;;1.75;0.30;;;;;;;;;;10213594;28;20038;-63
2021/03/18 10:29:36;;;;;;;1.90;0.23;;;;;;;;;;10211155;28;20038;-62
2021/03/18 10:34:33;;;;;;;0.43;0.10;;;;;;;;;;10216469;28;20038;-63
2021/03/18 10:39:31;;;;;;;0.83;0.30;;;;;;;;;;10179542;28;20070;-62
2021/03/18 10:44:38;;;;;;;2.00;0.40;;;;;;;;;;10195822;28;20041;-62
2021/03/18 10:49:36;;;;;;;1.02;0.13;;;;;;;;;;10211673;28;20513;-61
2021/03/18 10:54:34;;;;;;;0.10;0.10;;;;;;;;;;10173964;28;20448;-62
2021/03/18 10:59:32;;;;;;;4.70;0.40;;;;;;;;;;10189984;28;20137;-62
2021/03/18 11:04:29;;;;;;;0.57;0.20;;;;;;;;;;10212433;28;20121;-64
2021/03/18 11:09:27;;;;;;;0.10;0.10;;;;;;;;;;10198826;28;20043;-62
2021/03/18 11:14:26;;;;;;;1.17;0.40;;;;;;;;;;10207519;28;20050;-63
2021/03/18 11:19:23;;;;;;;1.05;0.63;;;;;;;;;;10206351;28;20347;-62
2021/03/18 11:24:21;;;;;;;0.87;0.30;;;;;;;;;;10194858;28;20871;-64
2021/03/18 11:29:19;;;;;;;0.63;0.37;;;;;;;;;;10189098;28;20568;-62
2021/03/18 11:34:18;;;;;;;1.00;0.70;;;;;;;;;;10188514;28;20058;-63
2021/03/18 11:39:16;;;;;;;0.40;0.40;;;;;;;;;;10180637;28;20042;-64
2021/03/18 11:44:15;;;;;;;0.45;0.30;;;;;;;;;;10200843;28;20046;-61
2021/03/18 11:49:13;;;;;;;5.93;0.65;;;;;;;;;;10170470;28;20038;-61
2021/03/18 11:54:10;;;;;;;0.97;0.20;;;;;;;;;;10201836;28;20038;-62
2021/03/18 11:59:08;;;;;;;0.30;0.20;;;;;;;;;;10185193;28;20628;-62
2021/03/18 12:04:06;;;;;;;0.10;0.10;;;;;;;;;;10183133;28;20038;-61
2021/03/18 12:09:04;;;;;;;0.20;0.20;;;;;;;;;;10202886;28;20129;-61
2021/03/18 12:14:02;;;;;;;0.17;0.17;;;;;;;;;;10197138;28;20130;-62
2021/03/18 12:19:02;;;;;;;1.63;0.47;;;;;;;;;;10194017;28;20026;-61
2021/03/18 12:24:00;;;;;;;0.73;0.40;;;;;;;;;;10205541;28;20412;-61
2021/03/18 12:28:57;;;;;;;0.40;0.30;;;;;;;;;;10196943;28;20080;-61
2021/03/18 12:33:55;;;;;;;1.10;0.30;;;;;;;;;;10189181;28;20034;-62
2021/03/18 12:38:52;;;;;;;3.87;0.43;;;;;;;;;;10176736;28;20942;-61
2021/03/18 12:43:49;;;;;;;0.33;0.10;;;;;;;;;;10208891;28;20414;-60
2021/03/18 12:48:47;;;;;;;4.03;0.33;;;;;;;;;;10187242;28;20026;-60
2021/03/18 12:53:44;;;;;;;1.10;0.40;;;;;;;;;;10202517;28;20117;-63
2021/03/18 12:58:42;;;;;;;1.63;0.20;;;;;;;;;;10220442;28;20030;-61
2021/03/18 13:03:39;;;;;;;0.10;0.10;;;;;;;;;;10203189;28;20034;-61
2021/03/18 13:08:36;;;;;;;0.10;0.10;;;;;;;;;;10200652;28;20081;-61
2021/03/18 13:13:34;;;;;;;1.20;0.30;;;;;;;;;;10210147;28;20043;-61
2021/03/18 13:18:31;;;;;;;0.30;0.20;;;;;;;;;;10187768;28;20377;-61
2021/03/18 13:23:29;;;;;;;0.10;0.10;;;;;;;;;;10189216;28;20068;-63
2021/03/18 13:28:30;;;;;;;0.20;0.20;;;;;;;;;;10195929;28;20513;-65
2021/03/18 13:33:29;;;;;;;0.32;0.13;;;;;;;;;;10195058;28;20445;-62
2021/03/18 13:38:26;;;;;;;0.13;0.13;;;;;;;;;;10214285;28;20053;-61
2021/03/18 13:43:24;;;;;;;1.13;0.63;;;;;;;;;;10192376;28;20034;-62
2021/03/18 13:48:21;;;;;;;1.90;0.70;;;;;;;;;;10197296;28;20941;-62
2021/03/18 13:53:19;;;;;;;2.20;0.40;;;;;;;;;;10171034;28;20043;-64
2021/03/18 13:58:16;;;;;;;0.60;0.43;;;;;;;;;;10214798;28;20489;-63
2021/03/18 14:03:14;;;;;;;2.80;0.73;;;;;;;;;;10210446;28;20497;-62
2021/03/18 14:08:12;;;;;;;3.97;0.60;;;;;;;;;;10196855;28;20158;-62
2021/03/18 14:13:12;;;;;;;2.63;0.45;;;;;;;;;;10209973;28;20052;-63
2021/03/18 14:18:10;;;;;;;1.33;0.30;;;;;;;;;;10193555;28;20088;-63
2021/03/18 14:23:08;;;;;;;0.10;0.10;;;;;;;;;;10190548;28;20034;-64
2021/03/18 14:28:06;;;;;;;1.95;0.28;;;;;;;;;;10187975;28;20038;-63
2021/03/18 14:33:05;;;;;;;1.45;0.20;;;;;;;;;;10211495;28;20043;-63
2021/03/18 14:38:02;;;;;;;;;;;;;;;;;;10196294;28;21183;-65
2021/03/18 14:43:00;;;;;;;0.10;0.10;;;;;;;;;;10178697;28;20039;-62
2021/03/18 14:47:58;;;;;;;2.47;0.40;;;;;;;;;;10184520;28;20505;-61
2021/03/18 14:52:56;;;;;;;0.20;0.13;;;;;;;;;;10199603;28;20070;-62
2021/03/18 14:57:53;;;;;;;0.47;0.47;;;;;;;;;;10196884;28;20077;-62
2021/03/18 15:02:51;;;;;;;1.63;0.27;;;;;;;;;;10218184;28;20508;-65
2021/03/18 15:07:48;;;;;;;1.40;0.23;;;;;;;;;;10203865;28;20049;-61
2021/03/18 15:12:46;;;;;;;5.10;0.53;;;;;;;;;;10178405;28;20041;-63
2021/03/18 15:17:43;;;;;;;2.97;0.53;;;;;;;;;;10189718;28;20066;-63
2021/03/18 15:22:41;;;;;;;4.18;0.60;;;;;;;;;;10193588;28;20030;-64
2021/03/18 15:27:39;;;;;;;0.63;0.37;;;;;;;;;;10212247;28;20043;-62
2021/03/18 15:32:36;;;;;;;1.43;0.33;;;;;;;;;;10193856;28;20500;-62
2021/03/18 15:37:34;;;;;;;0.50;0.40;;;;;;;;;;10197567;28;20746;-62
2021/03/18 15:42:32;;;;;;;0.57;0.40;;;;;;;;;;10195327;28;20278;-62
2021/03/18 15:47:29;;;;;;;1.27;0.50;;;;;;;;;;10215103;28;20049;-62
2021/03/18 15:52:27;;;;;;;0.10;0.10;;;;;;;;;;10192253;28;20547;-61
2021/03/18 15:57:25;;;;;;;0.93;0.28;;;;;;;;;;10176355;28;20078;-63
2021/03/18 16:02:22;;;;;;;0.70;0.40;;;;;;;;;;10208613;28;20043;-61
2021/03/18 16:07:20;;;;;;;0.63;0.50;;;;;;;;;;10196379;28;20061;-63
2021/03/18 16:12:17;;;;;;;0.10;0.10;;;;;;;;;;10198119;28;20469;-61
2021/03/18 16:17:14;;;;;;;0.80;0.50;;;;;;;;;;10196003;28;20034;-61
2021/03/18 16:22:13;;;;;;;0.20;0.20;;;;;;;;;;10192282;28;20038;-62
2021/03/18 16:27:11;;;;;;;0.65;0.43;;;;;;;;;;10201052;28;20093;-62
2021/03/18 16:32:11;;;;;;;2.20;0.52;;;;;;;;;;10198100;28;20035;-61
2021/03/18 16:37:09;;;;;;;4.07;0.40;;;;;;;;;;10196881;28;20574;-62
2021/03/18 16:42:07;;;;;;;3.77;0.40;;;;;;;;;;10199022;28;20390;-60
2021/03/18 16:47:05;;;;;;;1.20;0.35;;;;;;;;;;10201879;28;20031;-62
2021/03/18 16:52:03;;;;;;;3.40;0.20;;;;;;;;;;10198967;28;20038;-61
2021/03/18 16:57:00;;;;;;;0.65;0.32;;;;;;;;;;10201403;28;20141;-62
2021/03/18 17:01:58;;;;;;;3.10;0.40;;;;;;;;;;10172899;28;20034;-63
2021/03/18 17:06:55;;;;;;;1.53;1.23;;;;;;;;;;10198253;28;20034;-62
2021/03/18 17:11:53;;;;;;;0.73;0.53;;;;;;;;;;10220533;28;20467;-62
2021/03/18 17:16:50;;;;;;;0.30;0.30;;;;;;;;;;10220377;28;20101;-61
2021/03/18 17:21:48;;;;;;;0.30;0.20;;;;;;;;;;10180090;28;20043;-61
2021/03/18 17:26:45;;;;;;;0.90;0.83;;;;;;;;;;10209352;28;20059;-62
2021/03/18 17:31:43;;;;;;;0.47;0.40;;;;;;;;;;10194030;28;20653;-61
2021/03/18 17:36:40;;;;;;;1.90;0.60;;;;;;;;;;10191806;28;20136;-62
2021/03/18 17:41:38;;;;;;;0.30;0.30;;;;;;;;;;10206234;28;20771;-61
2021/03/18 17:46:35;;;;;;;2.83;0.63;;;;;;;;;;10199217;28;20038;-61
2021/03/18 17:51:32;;;;;;;1.13;0.63;;;;;;;;;;10185686;28;20038;-60
2021/03/18 17:56:30;;;;;;;5.53;1.50;;;;;;;;;;10192416;28;20046;-62
2021/03/18 18:01:27;;;;;;;8.80;3.37;;;;;;;;;;10206632;28;20070;-63
2021/03/18 18:06:25;;;;;;;5.23;2.43;;;;;;;;;;10187935;28;20033;-62
2021/03/18 18:11:22;;;;;;;40.70;8.20;;;;;;;;;;10224647;28;20500;-60
2021/03/18 18:16:20;;;;;;;9.27;4.20;;;;;;;;;;10204068;28;20084;-60
2021/03/18 18:21:17;;;;;;;16.83;2.70;;;;;;;;;;10186516;28;20042;-64
2021/03/18 18:26:15;;;;;;;7.60;2.00;;;;;;;;;;10214407;28;20044;-61
2021/03/18 18:31:12;;;;;;;10.33;2.90;;;;;;;;;;10181514;28;20046;-60
2021/03/18 18:36:11;;;;;;;2.70;1.63;;;;;;;;;;10184180;28;20137;-64
2021/03/18 18:41:09;;;;;;;6.95;2.60;;;;;;;;;;10212346;28;20109;-62
2021/03/18 18:46:06;;;;;;;9.03;3.57;;;;;;;;;;10199592;28;20033;-62
2021/03/18 18:51:04;;;;;;;3.37;1.67;;;;;;;;;;10211450;28;20039;-59
2021/03/18 18:56:01;;;;;;;5.37;2.83;;;;;;;;;;10180089;28;20088;-58
2021/03/18 19:00:58;;;;;;;5.13;2.27;;;;;;;;;;10189461;28;20408;-61
2021/03/18 19:05:56;;;;;;;5.80;2.47;;;;;;;;;;10175963;28;20409;-58
2021/03/18 19:10:53;;;;;;;5.53;2.60;;;;;;;;;;10176346;28;20054;-61
2021/03/18 19:15:51;;;;;;;5.63;2.03;;;;;;;;;;10192885;28;20046;-61
2021/03/18 19:20:51;;;;;;;5.23;2.20;;;;;;;;;;10192513;28;20026;-58
2021/03/18 19:25:50;;;;;;;6.30;2.15;;;;;;;;;;10189086;28;20447;-59
2021/03/18 19:30:50;;;;;;;4.57;2.45;;;;;;;;;;10195574;28;20102;-57
2021/03/18 19:35:48;;;;;;;4.97;1.70;;;;;;;;;;10179203;28;20042;-62
2021/03/18 19:40:49;;;;;;;5.50;1.57;;;;;;;;;;10186782;28;20101;-62
2021/03/18 19:45:47;;;;;;;2.33;1.52;;;;;;;;;;10219355;28;20034;-61
2021/03/18 19:50:47;;;;;;;1.87;1.20;;;;;;;;;;10199396;28;20085;-60
2021/03/18 19:55:44;;;;;;;3.70;1.95;;;;;;;;;;10192931;28;20037;-59
2021/03/18 20:00:42;;;;;;;3.63;1.60;;;;;;;;;;10183255;28;20271;-60
2021/03/18 20:05:40;;;;;;;3.60;2.13;;;;;;;;;;10198007;28;20044;-61
2021/03/18 20:10:37;;;;;;;7.15;2.45;;;;;;;;;;10198876;28;20050;-60
2021/03/18 20:15:36;;;;;;;7.30;1.47;;;;;;;;;;10212136;28;20045;-61
2021/03/18 20:20:34;;;;;;;2.40;1.33;;;;;;;;;;10188258;28;20047;-62
2021/03/18 20:25:32;;;;;;;1.55;0.90;;;;;;;;;;10175930;28;20122;-58
2021/03/18 20:30:56;;;;;;;2.50;1.20;;;;;;;;;;10195036;28;20810;-60
2021/03/18 20:35:54;;;;;;;3.47;1.70;;;;;;;;;;10160708;28;20046;-62
2021/03/18 20:40:52;;;;;;;2.60;1.60;;;;;;;;;;10197466;28;20030;-60
2021/03/18 20:45:49;;;;;;;3.60;1.40;;;;;;;;;;10188139;28;20117;-54
2021/03/18 20:50:47;;;;;;;4.30;1.30;;;;;;;;;;10168424;28;20534;-59
2021/03/18 20:55:45;;;;;;;1.47;1.00;;;;;;;;;;10191623;28;20069;-61
2021/03/18 21:00:44;;;;;;;5.73;1.53;;;;;;;;;;10186647;28;20286;-59
2021/03/18 21:05:41;;;;;;;6.03;1.17;;;;;;;;;;10180701;28;20046;-61
2021/03/18 21:10:39;;;;;;;2.80;1.20;;;;;;;;;;10187386;28;20085;-64
2021/03/18 21:15:36;;;;;;;3.13;1.20;;;;;;;;;;10201630;28;20999;-61
2021/03/18 21:20:34;;;;;;;0.57;0.57;;;;;;;;;;10206524;28;20034;-59
2021/03/18 21:25:31;;;;;;;1.57;1.40;;;;;;;;;;10202873;28;20054;-61
2021/03/18 21:30:28;;;;;;;2.03;1.00;;;;;;;;;;10207233;28;20039;-62
2021/03/18 21:35:26;;;;;;;1.60;1.50;;;;;;;;;;10211925;28;20130;-62
2021/03/18 21:40:24;;;;;;;0.60;0.60;;;;;;;;;;10191089;28;20042;-62
2021/03/18 21:45:22;;;;;;;1.53;0.93;;;;;;;;;;10201484;28;20058;-62
2021/03/18 21:50:22;;;;;;;0.28;0.28;;;;;;;;;;10229978;28;20088;-66
2021/03/18 21:55:21;;;;;;;0.60;0.47;;;;;;;;;;10187636;28;20338;-64
2021/03/18 22:00:20;;;;;;;1.05;0.93;;;;;;;;;;10208477;28;20030;-63
2021/03/18 22:05:17;;;;;;;1.35;0.60;;;;;;;;;;10201644;28;20042;-64
2021/03/18 22:10:15;;;;;;;0.50;0.50;;;;;;;;;;10210011;28;20041;-64
2021/03/18 22:15:13;;;;;;;0.53;0.53;;;;;;;;;;10202504;28;20483;-64
2021/03/18 22:20:12;;;;;;;1.30;0.75;;;;;;;;;;10200822;28;20030;-62
2021/03/18 22:25:11;;;;;;;0.30;0.30;;;;;;;;;;10205250;28;20393;-62
2021/03/18 22:30:09;;;;;;;1.00;0.90;;;;;;;;;;10207677;28;20042;-64
2021/03/18 22:35:09;;;;;;;0.55;0.55;;;;;;;;;;10219336;28;20113;-62
2021/03/18 22:40:06;;;;;;;0.50;0.50;;;;;;;;;;10221028;28;20034;-62
2021/03/18 22:45:04;;;;;;;0.63;0.63;;;;;;;;;;10201500;28;20714;-64
2021/03/18 22:50:03;;;;;;;1.38;0.60;;;;;;;;;;10190503;28;20027;-64
2021/03/18 22:55:00;;;;;;;0.40;0.40;;;;;;;;;;10200496;28;20552;-64
2021/03/18 22:59:58;;;;;;;0.47;0.47;;;;;;;;;;10185582;28;20534;-63
2021/03/18 23:04:56;;;;;;;1.43;1.00;;;;;;;;;;10196753;28;20046;-64
2021/03/18 23:09:53;;;;;;;0.27;0.27;;;;;;;;;;10187663;28;20487;-63
2021/03/18 23:14:51;;;;;;;1.53;1.03;;;;;;;;;;10207515;28;20505;-64
2021/03/18 23:19:48;;;;;;;0.47;0.47;;;;;;;;;;10174753;28;20408;-62
2021/03/18 23:24:48;;;;;;;0.67;0.53;;;;;;;;;;10202174;28;20031;-64
2021/03/18 23:29:45;;;;;;;0.82;0.82;;;;;;;;;;10206668;28;20042;-64
2021/03/18 23:34:43;;;;;;;0.97;0.60;;;;;;;;;;10221378;28;20424;-64
2021/03/18 23:39:40;;;;;;;0.40;0.40;;;;;;;;;;10194995;28;20042;-64
2021/03/18 23:44:38;;;;;;;0.47;0.47;;;;;;;;;;10207480;28;20045;-64
2021/03/18 23:49:36;;;;;;;0.73;0.60;;;;;;;;;;10194775;28;20038;-63
2021/03/18 23:54:33;;;;;;;0.57;0.57;;;;;;;;;;10218496;28;20467;-63
2021/03/18 23:59:30;;;;;;;0.20;0.20;;;;;;;;;;10183739;28;20508;-63
